sensor_id;sensor_type;location;lat;lon;timestamp;P1;durP1;ratioP1;P2;durP2;ratioP2
71048;SDS011;58704;53.358;-6.238;2023-06-10T16:34:53;33.00;;;19.52;;
71048;SDS011;58704;53.358;-6.238;2023-06-10T16:37:18;35.67;;;19.45;;
71048;SDS011;58704;53.358;-6.238;2023-06-10T16:39:44;31.13;;;18.40;;
71048;SDS011;58704;53.358;-6.238;2023-06-10T16:42:09;32.33;;;18.10;;
71048;SDS011;58704;53.358;-6.238;2023-06-10T16:44:34;38.00;;;19.60;;
71048;SDS011;58704;53.358;-6.238;2023-06-10T16:47:00;38.05;;;19.08;;
71048;SDS011;58704;53.358;-6.238;2023-06-10T16:49:25;35.80;;;20.60;;
71048;SDS011;58704;53.358;-6.238;2023-06-10T16:51:51;35.03;;;20.30;;
71048;SDS011;58704;53.358;-6.238;2023-06-10T16:54:16;33.63;;;19.03;;
71048;SDS011;58704;53.358;-6.238;2023-06-10T16:56:41;32.10;;;19.03;;
71048;SDS011;58704;53.358;-6.238;2023-06-10T16:59:07;34.00;;;18.98;;
71048;SDS011;58704;53.358;-6.238;2023-06-10T17:01:33;32.60;;;19.23;;
71048;SDS011;58704;53.358;-6.238;2023-06-10T17:03:59;29.67;;;17.95;;
71048;SDS011;58704;53.358;-6.238;2023-06-10T17:06:24;30.77;;;18.37;;
71048;SDS011;58704;53.358;-6.238;2023-06-10T17:08:49;36.50;;;18.97;;
71048;SDS011;58704;53.358;-6.238;2023-06-10T17:11:16;28.40;;;17.13;;
71048;SDS011;58704;53.358;-6.238;2023-06-10T17:13:41;27.77;;;17.50;;
71048;SDS011;58704;53.358;-6.238;2023-06-10T17:16:07;31.63;;;19.47;;
71048;SDS011;58704;53.358;-6.238;2023-06-10T17:18:32;34.92;;;18.33;;
71048;SDS011;58704;53.358;-6.238;2023-06-10T17:20:57;28.90;;;18.57;;
71048;SDS011;58704;53.358;-6.238;2023-06-10T17:23:23;36.17;;;20.13;;
71048;SDS011;58704;53.358;-6.238;2023-06-10T17:25:48;34.73;;;19.80;;
71048;SDS011;58704;53.358;-6.238;2023-06-10T17:28:14;41.75;;;18.88;;
71048;SDS011;58704;53.358;-6.238;2023-06-10T17:30:40;36.93;;;18.73;;
71048;SDS011;58704;53.358;-6.238;2023-06-10T17:33:05;37.13;;;18.92;;
71048;SDS011;58704;53.358;-6.238;2023-06-10T17:35:30;37.80;;;18.93;;
71048;SDS011;58704;53.358;-6.238;2023-06-10T17:37:56;35.40;;;18.73;;
71048;SDS011;58704;53.358;-6.238;2023-06-10T17:40:21;39.90;;;19.03;;
71048;SDS011;58704;53.358;-6.238;2023-06-10T17:42:47;34.30;;;20.05;;
71048;SDS011;58704;53.358;-6.238;2023-06-10T17:45:12;36.33;;;19.33;;
71048;SDS011;58704;53.358;-6.238;2023-06-10T17:47:38;36.03;;;19.23;;
71048;SDS011;58704;53.358;-6.238;2023-06-10T17:50:03;32.75;;;18.30;;
71048;SDS011;58704;53.358;-6.238;2023-06-10T17:52:29;37.03;;;20.00;;
71048;SDS011;58704;53.358;-6.238;2023-06-10T17:54:55;39.88;;;19.92;;
71048;SDS011;58704;53.358;-6.238;2023-06-10T17:57:21;39.70;;;20.17;;
71048;SDS011;58704;53.358;-6.238;2023-06-10T17:59:46;36.57;;;19.07;;
71048;SDS011;58704;53.358;-6.238;2023-06-10T18:02:12;41.23;;;19.33;;
71048;SDS011;58704;53.358;-6.238;2023-06-10T18:04:37;36.63;;;19.80;;
71048;SDS011;58704;53.358;-6.238;2023-06-10T18:07:03;35.57;;;20.03;;
71048;SDS011;58704;53.358;-6.238;2023-06-10T18:09:28;41.20;;;22.07;;
71048;SDS011;58704;53.358;-6.238;2023-06-10T18:11:54;42.83;;;21.20;;
71048;SDS011;58704;53.358;-6.238;2023-06-10T18:14:19;34.25;;;19.08;;
71048;SDS011;58704;53.358;-6.238;2023-06-10T18:16:44;40.30;;;22.50;;
71048;SDS011;58704;53.358;-6.238;2023-06-10T18:19:10;37.10;;;20.30;;
71048;SDS011;58704;53.358;-6.238;2023-06-10T18:21:35;39.17;;;21.48;;
71048;SDS011;58704;53.358;-6.238;2023-06-10T18:24:02;36.07;;;20.50;;
71048;SDS011;58704;53.358;-6.238;2023-06-10T18:26:28;35.40;;;18.85;;
71048;SDS011;58704;53.358;-6.238;2023-06-10T18:28:54;31.57;;;19.73;;
71048;SDS011;58704;53.358;-6.238;2023-06-10T18:31:19;34.42;;;23.10;;
71048;SDS011;58704;53.358;-6.238;2023-06-10T18:33:45;33.17;;;19.73;;
71048;SDS011;58704;53.358;-6.238;2023-06-10T18:36:10;29.53;;;19.20;;
71048;SDS011;58704;53.358;-6.238;2023-06-10T18:38:35;37.13;;;21.87;;
71048;SDS011;58704;53.358;-6.238;2023-06-10T18:41:01;31.58;;;19.13;;
71048;SDS011;58704;53.358;-6.238;2023-06-10T18:43:26;33.03;;;18.60;;
71048;SDS011;58704;53.358;-6.238;2023-06-10T18:45:52;32.90;;;18.87;;
71048;SDS011;58704;53.358;-6.238;2023-06-10T18:48:17;34.10;;;19.83;;
71048;SDS011;58704;53.358;-6.238;2023-06-10T18:50:42;30.92;;;17.80;;
71048;SDS011;58704;53.358;-6.238;2023-06-10T18:53:08;29.97;;;18.13;;
71048;SDS011;58704;53.358;-6.238;2023-06-10T18:55:33;32.00;;;19.13;;
71048;SDS011;58704;53.358;-6.238;2023-06-10T18:58:01;32.95;;;18.80;;
71048;SDS011;58704;53.358;-6.238;2023-06-10T19:00:27;28.27;;;18.35;;
71048;SDS011;58704;53.358;-6.238;2023-06-10T19:02:52;31.37;;;20.17;;
71048;SDS011;58704;53.358;-6.238;2023-06-10T19:05:18;31.63;;;20.77;;
71048;SDS011;58704;53.358;-6.238;2023-06-10T19:07:44;42.33;;;19.88;;
71048;SDS011;58704;53.358;-6.238;2023-06-10T19:10:09;37.00;;;20.33;;
71048;SDS011;58704;53.358;-6.238;2023-06-10T19:12:35;41.13;;;23.08;;
71048;SDS011;58704;53.358;-6.238;2023-06-10T19:15:00;38.30;;;21.20;;
71048;SDS011;58704;53.358;-6.238;2023-06-10T19:17:26;38.13;;;22.17;;
71048;SDS011;58704;53.358;-6.238;2023-06-10T19:19:51;36.63;;;23.85;;
71048;SDS011;58704;53.358;-6.238;2023-06-10T19:22:17;46.83;;;21.70;;
71048;SDS011;58704;53.358;-6.238;2023-06-10T19:24:42;35.20;;;20.92;;
71048;SDS011;58704;53.358;-6.238;2023-06-10T19:27:09;34.13;;;21.50;;
71048;SDS011;58704;53.358;-6.238;2023-06-10T19:29:35;36.42;;;20.48;;
71048;SDS011;58704;53.358;-6.238;2023-06-10T19:32:01;33.58;;;20.23;;
71048;SDS011;58704;53.358;-6.238;2023-06-10T19:34:27;35.83;;;20.63;;
71048;SDS011;58704;53.358;-6.238;2023-06-10T19:36:52;33.67;;;20.92;;
71048;SDS011;58704;53.358;-6.238;2023-06-10T19:39:18;32.67;;;19.57;;
71048;SDS011;58704;53.358;-6.238;2023-06-10T19:41:43;36.93;;;21.83;;
71048;SDS011;58704;53.358;-6.238;2023-06-10T19:44:09;34.30;;;21.13;;
71048;SDS011;58704;53.358;-6.238;2023-06-10T19:46:35;36.60;;;21.10;;
71048;SDS011;58704;53.358;-6.238;2023-06-10T19:49:00;33.47;;;21.00;;
71048;SDS011;58704;53.358;-6.238;2023-06-10T19:51:26;33.33;;;21.20;;
71048;SDS011;58704;53.358;-6.238;2023-06-10T19:53:51;35.77;;;20.43;;
71048;SDS011;58704;53.358;-6.238;2023-06-10T19:56:16;35.90;;;22.17;;
71048;SDS011;58704;53.358;-6.238;2023-06-10T19:58:47;37.80;;;22.08;;
71048;SDS011;58704;53.358;-6.238;2023-06-10T20:01:13;39.60;;;23.95;;
71048;SDS011;58704;53.358;-6.238;2023-06-10T20:03:39;30.63;;;21.23;;
71048;SDS011;58704;53.358;-6.238;2023-06-10T20:06:04;33.38;;;21.98;;
71048;SDS011;58704;53.358;-6.238;2023-06-10T20:08:30;32.30;;;22.20;;
71048;SDS011;58704;53.358;-6.238;2023-06-10T20:10:57;38.38;;;22.45;;
71048;SDS011;58704;53.358;-6.238;2023-06-10T20:13:22;29.83;;;21.40;;
71048;SDS011;58704;53.358;-6.238;2023-06-10T20:15:47;29.90;;;21.25;;
71048;SDS011;58704;53.358;-6.238;2023-06-10T20:18:13;33.40;;;20.73;;
71048;SDS011;58704;53.358;-6.238;2023-06-10T20:20:38;30.07;;;20.67;;
71048;SDS011;58704;53.358;-6.238;2023-06-10T20:23:03;39.53;;;23.90;;
71048;SDS011;58704;53.358;-6.238;2023-06-10T20:25:29;36.00;;;22.30;;
71048;SDS011;58704;53.358;-6.238;2023-06-10T20:27:55;36.85;;;20.73;;
71048;SDS011;58704;53.358;-6.238;2023-06-10T20:30:20;36.50;;;21.87;;
71048;SDS011;58704;53.358;-6.238;2023-06-10T20:32:46;36.83;;;21.17;;
71048;SDS011;58704;53.358;-6.238;2023-06-10T20:35:11;30.93;;;20.97;;
71048;SDS011;58704;53.358;-6.238;2023-06-10T20:37:37;33.77;;;22.23;;
71048;SDS011;58704;53.358;-6.238;2023-06-10T20:40:02;31.03;;;21.07;;
71048;SDS011;58704;53.358;-6.238;2023-06-10T20:42:29;34.30;;;20.23;;
71048;SDS011;58704;53.358;-6.238;2023-06-10T20:44:54;32.72;;;20.67;;
71048;SDS011;58704;53.358;-6.238;2023-06-10T20:47:20;33.07;;;21.40;;
71048;SDS011;58704;53.358;-6.238;2023-06-10T20:49:45;32.07;;;21.40;;
71048;SDS011;58704;53.358;-6.238;2023-06-10T20:52:10;33.23;;;21.53;;
71048;SDS011;58704;53.358;-6.238;2023-06-10T20:54:36;29.50;;;22.57;;
71048;SDS011;58704;53.358;-6.238;2023-06-10T20:57:01;28.80;;;20.47;;
71048;SDS011;58704;53.358;-6.238;2023-06-10T20:59:26;31.37;;;20.83;;
71048;SDS011;58704;53.358;-6.238;2023-06-10T21:01:52;36.57;;;22.70;;
71048;SDS011;58704;53.358;-6.238;2023-06-10T21:04:18;33.88;;;23.27;;
71048;SDS011;58704;53.358;-6.238;2023-06-10T21:06:43;31.20;;;21.30;;
71048;SDS011;58704;53.358;-6.238;2023-06-10T21:09:10;31.65;;;20.50;;
71048;SDS011;58704;53.358;-6.238;2023-06-10T21:11:35;44.83;;;22.33;;
71048;SDS011;58704;53.358;-6.238;2023-06-10T21:14:01;36.90;;;22.77;;
71048;SDS011;58704;53.358;-6.238;2023-06-10T21:16:26;40.33;;;21.77;;
71048;SDS011;58704;53.358;-6.238;2023-06-10T21:18:53;38.10;;;22.42;;
71048;SDS011;58704;53.358;-6.238;2023-06-10T21:21:18;43.57;;;24.27;;
71048;SDS011;58704;53.358;-6.238;2023-06-10T21:23:44;36.77;;;22.97;;
71048;SDS011;58704;53.358;-6.238;2023-06-10T21:26:10;41.30;;;21.83;;
71048;SDS011;58704;53.358;-6.238;2023-06-10T21:28:35;41.50;;;22.90;;
71048;SDS011;58704;53.358;-6.238;2023-06-10T21:31:01;42.77;;;23.43;;
71048;SDS011;58704;53.358;-6.238;2023-06-10T21:33:27;45.33;;;24.95;;
71048;SDS011;58704;53.358;-6.238;2023-06-10T21:35:52;38.27;;;23.03;;
71048;SDS011;58704;53.358;-6.238;2023-06-10T21:38:18;41.15;;;24.25;;
71048;SDS011;58704;53.358;-6.238;2023-06-10T21:40:43;38.83;;;22.03;;
71048;SDS011;58704;53.358;-6.238;2023-06-10T21:43:09;44.07;;;24.00;;
71048;SDS011;58704;53.358;-6.238;2023-06-10T21:45:34;40.53;;;22.87;;
71048;SDS011;58704;53.358;-6.238;2023-06-10T21:47:59;40.77;;;23.63;;
71048;SDS011;58704;53.358;-6.238;2023-06-10T21:50:25;43.83;;;23.43;;
71048;SDS011;58704;53.358;-6.238;2023-06-10T21:52:50;43.40;;;25.37;;
71048;SDS011;58704;53.358;-6.238;2023-06-10T21:55:15;44.10;;;23.20;;
71048;SDS011;58704;53.358;-6.238;2023-06-10T21:57:41;38.30;;;23.17;;
71048;SDS011;58704;53.358;-6.238;2023-06-10T22:00:06;39.77;;;24.30;;
71048;SDS011;58704;53.358;-6.238;2023-06-10T22:02:39;36.27;;;22.20;;
71048;SDS011;58704;53.358;-6.238;2023-06-10T22:05:04;43.33;;;23.83;;
71048;SDS011;58704;53.358;-6.238;2023-06-10T22:07:30;41.78;;;22.58;;
71048;SDS011;58704;53.358;-6.238;2023-06-10T22:09:55;42.90;;;23.60;;
71048;SDS011;58704;53.358;-6.238;2023-06-10T22:12:21;35.90;;;21.83;;
71048;SDS011;58704;53.358;-6.238;2023-06-10T22:14:46;42.43;;;23.80;;
71048;SDS011;58704;53.358;-6.238;2023-06-10T22:17:12;44.13;;;22.70;;
71048;SDS011;58704;53.358;-6.238;2023-06-10T22:19:37;36.80;;;23.70;;
71048;SDS011;58704;53.358;-6.238;2023-06-10T22:22:10;35.97;;;24.00;;
71048;SDS011;58704;53.358;-6.238;2023-06-10T22:24:35;37.85;;;25.60;;
71048;SDS011;58704;53.358;-6.238;2023-06-10T22:27:01;42.00;;;23.83;;
71048;SDS011;58704;53.358;-6.238;2023-06-10T22:29:27;39.85;;;24.10;;
71048;SDS011;58704;53.358;-6.238;2023-06-10T22:31:53;38.63;;;23.43;;
71048;SDS011;58704;53.358;-6.238;2023-06-10T22:34:19;44.72;;;24.17;;
71048;SDS011;58704;53.358;-6.238;2023-06-10T22:36:44;37.30;;;24.10;;
71048;SDS011;58704;53.358;-6.238;2023-06-10T22:39:10;38.47;;;24.00;;
71048;SDS011;58704;53.358;-6.238;2023-06-10T22:41:37;41.33;;;23.08;;
71048;SDS011;58704;53.358;-6.238;2023-06-10T22:44:03;40.67;;;23.52;;
71048;SDS011;58704;53.358;-6.238;2023-06-10T22:46:28;41.83;;;22.80;;
71048;SDS011;58704;53.358;-6.238;2023-06-10T22:48:54;39.70;;;24.53;;
71048;SDS011;58704;53.358;-6.238;2023-06-10T22:51:19;47.83;;;25.93;;
71048;SDS011;58704;53.358;-6.238;2023-06-10T22:53:45;45.20;;;24.63;;
71048;SDS011;58704;53.358;-6.238;2023-06-10T22:56:10;46.10;;;24.30;;
71048;SDS011;58704;53.358;-6.238;2023-06-10T22:58:35;37.57;;;23.10;;
71048;SDS011;58704;53.358;-6.238;2023-06-10T23:01:01;40.13;;;23.88;;
71048;SDS011;58704;53.358;-6.238;2023-06-10T23:03:26;40.83;;;22.60;;
71048;SDS011;58704;53.358;-6.238;2023-06-10T23:05:51;44.67;;;24.10;;
71048;SDS011;58704;53.358;-6.238;2023-06-10T23:08:17;42.63;;;23.53;;
71048;SDS011;58704;53.358;-6.238;2023-06-10T23:10:42;42.60;;;23.40;;
71048;SDS011;58704;53.358;-6.238;2023-06-10T23:13:08;46.10;;;23.10;;
71048;SDS011;58704;53.358;-6.238;2023-06-10T23:15:33;40.73;;;23.83;;
71048;SDS011;58704;53.358;-6.238;2023-06-10T23:17:58;41.60;;;23.47;;
71048;SDS011;58704;53.358;-6.238;2023-06-10T23:20:25;40.10;;;23.98;;
71048;SDS011;58704;53.358;-6.238;2023-06-10T23:22:50;42.43;;;24.13;;
71048;SDS011;58704;53.358;-6.238;2023-06-10T23:25:17;44.25;;;24.45;;
71048;SDS011;58704;53.358;-6.238;2023-06-10T23:27:46;40.33;;;24.88;;
71048;SDS011;58704;53.358;-6.238;2023-06-10T23:30:17;42.60;;;24.47;;
71048;SDS011;58704;53.358;-6.238;2023-06-10T23:32:42;41.80;;;24.27;;
71048;SDS011;58704;53.358;-6.238;2023-06-10T23:35:08;41.75;;;24.35;;
71048;SDS011;58704;53.358;-6.238;2023-06-10T23:37:33;45.53;;;25.07;;
71048;SDS011;58704;53.358;-6.238;2023-06-10T23:40:00;36.90;;;22.25;;
71048;SDS011;58704;53.358;-6.238;2023-06-10T23:42:25;44.67;;;24.43;;
71048;SDS011;58704;53.358;-6.238;2023-06-10T23:44:51;46.70;;;23.50;;
71048;SDS011;58704;53.358;-6.238;2023-06-10T23:47:16;43.03;;;24.97;;
71048;SDS011;58704;53.358;-6.238;2023-06-10T23:49:42;43.57;;;25.93;;
71048;SDS011;58704;53.358;-6.238;2023-06-10T23:52:07;41.90;;;25.42;;
71048;SDS011;58704;53.358;-6.238;2023-06-10T23:54:33;41.80;;;25.13;;
71048;SDS011;58704;53.358;-6.238;2023-06-10T23:56:58;49.95;;;26.00;;
71048;SDS011;58704;53.358;-6.238;2023-06-10T23:59:24;39.50;;;25.20;;
